Wilmington, OH

11:22 AM EST on February 10, 2016 (GMT -0500)
2.2 N Wilmington | | Change Station
CLOSE
Current Station
Personal Weather Station
Location: Wilmington, OH
Elevation: 1053 ft
Nearby Weather Stations
Active Advisory: Winter Weather Advisory Active Notice: Local Storm Report

Elev 1053 ft 39.47 °N, 83.84 °W | Updated 4 minutes ago

Light Snow
Light Snow
15.9 °F
Feels Like 1 °F
N
15.0
Wind Variable Wind from WNW
Gusts 19.0 mph

Today
High -- | Low -- °F
--% Chance of Precip.
Yesterday
High -- | Low -- °F
Precip. -- in
Pressure 29.95 in
Visibility 3.0 miles
Clouds Scattered Clouds 1800 ft
Scattered Clouds 3000 ft
Overcast 4200 ft
Windchill 1 °F
Dew Point 12 °F
Humidity 83%
Rainfall 0.00 in
Snow Depth Not available.
7:33 AM 6:05 PM
Waxing Crescent, 6% visible
SPECI KILN 101603Z AUTO 26015KT 3SM -SN SCT018 SCT030 OVC042 M09/M13 A2995 RMK AO2 P0000 T10941128
Pressure 29.95 in
Visibility 3.0 miles
Clouds Scattered Clouds 1800 ft
Scattered Clouds 3000 ft
Overcast 4200 ft
Windchill 1 °F
Dew Point 12 °F
Humidity 83%
Rainfall 0.00 in
Snow Depth Not available.
7:33 AM 6:05 PM
Waxing Crescent, 6% visible
SPECI KILN 101603Z AUTO 26015KT 3SM -SN SCT018 SCT030 OVC042 M09/M13 A2995 RMK AO2 P0000 T10941128

10-Day Weather Forecast

Almanac

Astronomy

Feb. 10, 2016 Rise Set
Actual Time
Civil Twilight
Nautical Twilight
Astronomical Twilight
Moon
Length of Visible Light
Length of Day
Tomorrow will be .
, % of the Moon is Illuminated

Today's Extremes

State Highs State Lows

Community

WunderPhotos

Upload Photos

1,891,881 photos uploaded!

WunderBlog® & News

Nearby

Air Quality

  Air Quality AQ Index Pollutant
Not available.

Snow Depth

Station Depth Elevation

Earthquake Activity

City Distance Mag. Time & Date
Minimum magnitude displayed is 2.5.

Coastal Water Temperatures

Place Temperature

Stations

Nearby Weather Stations

Station Location Temp. Windchill Dew Point Humidity Wind Precip. Elev Updated Type
                   

Watches & Warnings

Winter Weather Advisory
Issued: 9:45 AM EST Feb. 10, 2016 – National Weather Service

... Winter Weather Advisory now in effect until 1 PM EST this
afternoon...

* timing... snow showers expected through early afternoon... then
scattered snow showers and a few flurries will occur for the
remainder of the afternoon.

* Accumulations... snow accumulations of up to 1 inch expected.

* Impacts... travel difficulties are expected due to reduced
visibilities and snow accumulations.

Precautionary/preparedness actions...

Remember... a Winter Weather Advisory for snow means that periods
of snow will cause primarily travel difficulties. Be prepared for
snow covered roads and limited visibilities... and use caution
while driving. Stay tuned to NOAA Weather Radio or your favorite
source of information for the latest updates. Additional details
can also be found at www.Weather.Gov/iln as well as on our
facebook and twitter pages.